Time;durP1;ratioP1;P1;durP2;ratioP2;P2;SDS_P1;SDS_P2;PMS_P1;PMS_P2;Temp;Humidity;BMP_temperature;BMP_pressure;BME280_temperature;BME280_humidity;BME280_pressure;Samples;Min_cycle;Max_cycle;Signal;HPM_P1;HPM_P2
2022/07/07 00:01:37;;;;;;;6.03;3.80;;;22.30;63.30;;;;;;5074590;28;20538;-14
2022/07/07 00:04:03;;;;;;;5.45;3.88;;;22.20;63.40;;;;;;5074892;28;20025;-14
2022/07/07 00:06:30;;;;;;;5.82;3.80;;;22.10;63.30;;;;;;5074427;28;20028;-14
2022/07/07 00:08:57;;;;;;;7.25;3.63;;;22.00;63.40;;;;;;5074579;28;20029;-14
2022/07/07 00:11:24;;;;;;;5.70;4.07;;;22.00;63.50;;;;;;5074810;28;20043;-14
2022/07/07 00:13:52;;;;;;;4.15;3.55;;;22.00;63.60;;;;;;5074424;28;20489;-14
2022/07/07 00:16:19;;;;;;;6.97;4.40;;;21.90;63.60;;;;;;5074090;28;20028;-14
2022/07/07 00:18:47;;;;;;;4.15;3.25;;;21.90;63.80;;;;;;5056451;28;20119;-14
2022/07/07 00:21:13;;;;;;;3.90;3.55;;;21.90;63.90;;;;;;5075051;28;20029;-14
2022/07/07 00:23:39;;;;;;;5.00;3.55;;;21.90;64.00;;;;;;5074539;28;20025;-12
2022/07/07 00:26:05;;;;;;;5.60;4.18;;;21.90;64.30;;;;;;5074045;28;20504;-14
2022/07/07 00:28:31;;;;;;;5.50;3.85;;;21.80;64.50;;;;;;5073920;28;20067;-14
2022/07/07 00:30:57;;;;;;;4.47;3.70;;;21.80;64.70;;;;;;5074286;28;20104;-14
2022/07/07 00:33:23;;;;;;;5.68;4.00;;;21.80;64.70;;;;;;5074351;28;20036;-14
2022/07/07 00:35:50;;;;;;;7.97;4.75;;;21.70;64.70;;;;;;5073847;28;20032;-14
2022/07/07 00:38:16;;;;;;;7.50;4.95;;;21.80;65.10;;;;;;5055751;28;20385;-14
2022/07/07 00:40:42;;;;;;;5.88;4.25;;;21.80;65.70;;;;;;5074856;28;20108;-12
2022/07/07 00:43:09;;;;;;;7.53;4.43;;;21.80;66.30;;;;;;5074171;28;20033;-13
2022/07/07 00:45:34;;;;;;;8.50;5.70;;;21.80;66.40;;;;;;5073835;28;20077;-14
2022/07/07 00:48:00;;;;;;;7.32;5.38;;;21.80;69.20;;;;;;5073932;28;20041;-14
2022/07/07 00:50:26;;;;;;;7.82;6.10;;;21.90;69.20;;;;;;5073496;28;20021;-15
2022/07/07 00:52:53;;;;;;;7.15;5.75;;;21.90;69.30;;;;;;5074163;28;20020;-14
2022/07/07 00:55:19;;;;;;;9.93;6.35;;;21.90;69.10;;;;;;5073609;28;20055;-16
2022/07/07 00:57:45;;;;;;;8.68;5.32;;;22.00;68.20;;;;;;5043958;28;20049;-14
2022/07/07 01:00:14;;;;;;;7.18;5.30;;;22.00;67.70;;;;;;5054447;28;20091;-14
2022/07/07 01:02:42;;;;;;;9.57;6.55;;;22.10;67.40;;;;;;5053686;28;20017;-14
2022/07/07 01:05:10;;;;;;;10.10;6.60;;;22.20;67.00;;;;;;5054070;28;20032;-14
2022/07/07 01:07:37;;;;;;;8.63;5.97;;;22.20;66.20;;;;;;5053408;28;20584;-14
2022/07/07 01:10:06;;;;;;;6.18;5.05;;;22.40;65.30;;;;;;5053436;28;20040;-15
2022/07/07 01:12:37;;;;;;;4.93;4.30;;;22.40;64.10;;;;;;5053476;28;20075;-14
2022/07/07 01:15:05;;;;;;;6.43;4.57;;;22.60;61.40;;;;;;5035577;28;20384;-14
2022/07/07 01:17:31;;;;;;;5.35;3.67;;;22.70;60.70;;;;;;5053532;28;20039;-14
2022/07/07 01:19:58;;;;;;;4.60;3.70;;;22.90;60.50;;;;;;5053168;28;20036;-14
2022/07/07 01:22:28;;;;;;;6.05;3.80;;;23.10;58.90;;;;;;5053315;28;20028;-12
2022/07/07 01:24:54;;;;;;;5.13;3.78;;;23.30;57.50;;;;;;5053191;28;20033;-12
2022/07/07 01:27:21;;;;;;;5.03;3.63;;;23.50;57.20;;;;;;5035236;28;20095;-12
2022/07/07 01:29:49;;;;;;;4.35;3.70;;;23.60;56.90;;;;;;5053106;28;20021;-12
2022/07/07 01:32:16;;;;;;;4.40;3.60;;;23.70;57.00;;;;;;5052780;28;20488;-16
2022/07/07 01:34:44;;;;;;;4.28;3.25;;;23.70;56.80;;;;;;5053508;28;20409;-13
2022/07/07 01:37:11;;;;;;;6.45;3.70;;;23.80;56.70;;;;;;5053411;28;20021;-14
2022/07/07 01:39:38;;;;;;;6.32;3.28;;;23.80;56.60;;;;;;5053360;28;20029;-15
2022/07/07 01:42:05;;;;;;;4.93;2.90;;;23.80;56.50;;;;;;5053269;28;20484;-13
2022/07/07 01:44:36;;;;;;;5.50;3.00;;;23.90;56.50;;;;;;5053033;28;20036;-16
2022/07/07 01:47:04;;;;;;;4.00;3.15;;;23.90;56.40;;;;;;5052961;28;20033;-14
2022/07/07 01:49:31;;;;;;;4.50;3.40;;;23.90;56.50;;;;;;5052954;28;20025;-14
2022/07/07 01:51:58;;;;;;;6.22;3.30;;;23.90;56.50;;;;;;5052859;28;20075;-14
2022/07/07 01:54:26;;;;;;;5.07;3.30;;;23.90;56.20;;;;;;5052756;28;20504;-14
2022/07/07 01:56:52;;;;;;;4.20;3.00;;;23.90;56.40;;;;;;5057053;28;20138;-14
2022/07/07 01:59:18;;;;;;;6.75;3.17;;;23.90;56.50;;;;;;5073192;28;20056;-12
2022/07/07 02:01:43;;;;;;;3.20;2.90;;;23.90;56.60;;;;;;5072760;28;20029;-12
2022/07/07 02:04:10;;;;;;;3.70;3.00;;;23.90;56.80;;;;;;5072788;28;20036;-13
2022/07/07 02:06:38;;;;;;;3.20;2.90;;;23.90;56.40;;;;;;5072789;28;20032;-14
2022/07/07 02:09:05;;;;;;;3.28;2.95;;;23.90;56.50;;;;;;5073067;28;20036;-14
2022/07/07 02:11:32;;;;;;;6.72;3.10;;;23.90;56.60;;;;;;5072673;28;20123;-15
2022/07/07 02:13:58;;;;;;;4.50;3.22;;;23.80;56.80;;;;;;5072764;28;20028;-15
2022/07/07 02:16:26;;;;;;;3.97;3.13;;;23.70;57.80;;;;;;5072734;28;20380;-14
2022/07/07 02:18:54;;;;;;;4.20;3.10;;;23.70;57.80;;;;;;5072656;28;20028;-14
2022/07/07 02:21:22;;;;;;;5.63;3.40;;;23.50;58.10;;;;;;5072629;28;20021;-14
2022/07/07 02:23:52;;;;;;;5.47;3.60;;;23.40;58.90;;;;;;5072642;28;20083;-13
2022/07/07 02:26:18;;;;;;;6.35;3.55;;;23.40;59.40;;;;;;5072237;28;20057;-14
2022/07/07 02:28:44;;;;;;;4.13;3.47;;;23.30;59.60;;;;;;5054613;28;20027;-14
2022/07/07 02:31:11;;;;;;;4.22;3.20;;;23.20;59.60;;;;;;5054950;28;20434;-14
2022/07/07 02:33:38;;;;;;;3.88;3.20;;;23.10;59.90;;;;;;5072862;28;20052;-13
2022/07/07 02:36:05;;;;;;;3.70;3.03;;;23.00;60.00;;;;;;5072537;28;20032;-14
2022/07/07 02:38:32;;;;;;;3.63;3.33;;;23.00;60.20;;;;;;5054407;28;20535;-13
2022/07/07 02:40:59;;;;;;;4.35;3.10;;;22.90;60.10;;;;;;5072505;28;20058;-14
2022/07/07 02:43:26;;;;;;;3.97;3.30;;;22.90;60.60;;;;;;5072808;28;20025;-15
2022/07/07 02:45:52;;;;;;;6.22;3.58;;;22.90;60.90;;;;;;5054762;28;20056;-17
2022/07/07 02:48:20;;;;;;;4.97;3.70;;;22.80;61.80;;;;;;5072243;28;20025;-15
2022/07/07 02:50:47;;;;;;;6.93;3.75;;;22.70;62.50;;;;;;5072354;28;20116;-14
2022/07/07 02:53:15;;;;;;;4.53;3.65;;;22.60;62.40;;;;;;5072609;28;20052;-14
2022/07/07 02:55:42;;;;;;;3.70;3.40;;;22.60;62.90;;;;;;5072670;28;20052;-14
2022/07/07 02:58:09;;;;;;;3.88;3.50;;;22.60;62.90;;;;;;5072227;28;20052;-13
2022/07/07 03:00:36;;;;;;;4.78;3.78;;;22.50;63.30;;;;;;5074750;28;20047;-13
2022/07/07 03:03:04;;;;;;;5.05;3.90;;;22.50;63.10;;;;;;5075849;28;20032;-15
2022/07/07 03:05:30;;;;;;;4.75;4.07;;;22.50;63.80;;;;;;5075814;28;20056;-15
2022/07/07 03:07:57;;;;;;;4.20;3.80;;;22.50;64.80;;;;;;5075880;28;20028;-13
2022/07/07 03:10:24;;;;;;;5.05;4.25;;;22.40;64.50;;;;;;5075557;28;20491;-13
2022/07/07 03:12:50;;;;;;;4.88;4.18;;;22.40;65.20;;;;;;5075580;28;20103;-13
2022/07/07 03:15:16;;;;;;;4.80;4.10;;;22.40;65.20;;;;;;5075993;28;20103;-14
2022/07/07 03:17:43;;;;;;;6.10;4.18;;;22.30;65.10;;;;;;5075445;28;20492;-14
2022/07/07 03:20:10;;;;;;;4.72;4.22;;;22.30;65.30;;;;;;5075531;28;20024;-14
2022/07/07 03:22:38;;;;;;;4.78;3.92;;;22.20;65.40;;;;;;5075384;28;20024;-14
2022/07/07 03:25:05;;;;;;;6.07;4.35;;;22.20;65.00;;;;;;5075590;28;20063;-13
2022/07/07 03:27:31;;;;;;;5.80;3.95;;;22.10;65.40;;;;;;5075355;28;20662;-14
2022/07/07 03:29:57;;;;;;;6.47;4.13;;;22.00;64.90;;;;;;5075590;28;20016;-14
2022/07/07 03:32:23;;;;;;;4.32;3.72;;;22.00;65.40;;;;;;5057040;28;20033;-13
2022/07/07 03:34:49;;;;;;;5.45;4.25;;;22.00;65.70;;;;;;5075213;28;20028;-14
2022/07/07 03:37:14;;;;;;;5.63;4.25;;;22.00;65.90;;;;;;5075189;28;20031;-15
2022/07/07 03:39:41;;;;;;;4.35;3.95;;;21.90;66.80;;;;;;5075454;28;20020;-13
2022/07/07 03:42:07;;;;;;;6.10;4.43;;;21.90;66.60;;;;;;5057185;28;20024;-13
2022/07/07 03:44:33;;;;;;;4.95;4.30;;;21.80;67.00;;;;;;5074836;28;20021;-13
2022/07/07 03:46:59;;;;;;;4.78;3.88;;;21.70;67.00;;;;;;5074847;28;20039;-15
2022/07/07 03:49:25;;;;;;;4.63;3.80;;;21.70;67.30;;;;;;5075373;28;20020;-16
2022/07/07 03:51:51;;;;;;;6.30;4.00;;;21.70;67.20;;;;;;5074889;28;20032;-15
2022/07/07 03:54:17;;;;;;;6.60;3.90;;;21.70;66.70;;;;;;5074710;28;20492;-15
2022/07/07 03:56:43;;;;;;;5.53;4.07;;;21.80;66.10;;;;;;5072430;28;20079;-13
2022/07/07 03:59:09;;;;;;;4.80;3.80;;;21.90;66.20;;;;;;5056931;28;20033;-14
2022/07/07 04:01:36;;;;;;;5.18;3.80;;;21.90;65.90;;;;;;5074601;28;20039;-15
2022/07/07 04:04:04;;;;;;;6.68;4.47;;;22.00;65.50;;;;;;5074687;28;20036;-15
2022/07/07 04:06:31;;;;;;;4.93;4.20;;;22.00;65.70;;;;;;5074352;28;20126;-14
2022/07/07 04:08:58;;;;;;;5.57;4.20;;;22.10;65.30;;;;;;5074900;28;20112;-15
2022/07/07 04:11:24;;;;;;;4.65;3.80;;;22.10;65.90;;;;;;5073352;28;20460;-14
2022/07/07 04:13:50;;;;;;;6.07;3.83;;;22.10;65.20;;;;;;5074804;28;20029;-16
2022/07/07 04:16:16;;;;;;;6.82;3.97;;;22.20;65.40;;;;;;5074379;28;20365;-15
2022/07/07 04:18:42;;;;;;;3.92;3.55;;;22.20;65.00;;;;;;5075081;28;20461;-14
2022/07/07 04:21:08;;;;;;;4.50;3.33;;;22.20;64.70;;;;;;5074861;28;20039;-15
2022/07/07 04:23:34;;;;;;;5.35;3.50;;;22.20;64.20;;;;;;5074227;28;20151;-14
2022/07/07 04:26:00;;;;;;;3.83;3.40;;;22.30;64.10;;;;;;5056585;28;20043;-14
2022/07/07 04:28:26;;;;;;;4.40;3.60;;;22.30;63.90;;;;;;5073893;28;20037;-14
2022/07/07 04:30:52;;;;;;;3.80;3.50;;;22.30;63.90;;;;;;5074038;28;20036;-16
2022/07/07 04:33:18;;;;;;;4.93;3.53;;;22.20;64.30;;;;;;5074110;28;20553;-14
2022/07/07 04:35:44;;;;;;;5.28;3.30;;;22.20;64.60;;;;;;5074426;28;20112;-15
2022/07/07 04:38:10;;;;;;;6.03;3.55;;;22.20;64.40;;;;;;5073942;28;20025;-14
2022/07/07 04:40:36;;;;;;;4.70;3.83;;;22.10;64.60;;;;;;5056021;28;20083;-14
2022/07/07 04:43:02;;;;;;;5.22;3.88;;;22.10;65.50;;;;;;5073844;28;20036;-15
2022/07/07 04:45:28;;;;;;;4.68;4.18;;;22.00;66.40;;;;;;5074165;28;20467;-13
2022/07/07 04:47:54;;;;;;;4.78;3.80;;;21.90;68.60;;;;;;5073635;28;20107;-15
2022/07/07 04:50:20;;;;;;;5.13;3.83;;;21.80;68.50;;;;;;5073803;28;20108;-17
2022/07/07 04:52:46;;;;;;;6.50;4.30;;;21.60;69.90;;;;;;5073707;28;20392;-16
2022/07/07 04:55:13;;;;;;;4.63;4.15;;;21.50;70.60;;;;;;5056233;28;20017;-14
2022/07/07 04:57:39;;;;;;;4.53;4.13;;;21.30;71.20;;;;;;5073534;28;20099;-14
2022/07/07 05:00:06;;;;;;;6.15;4.18;;;21.20;72.00;;;;;;5055744;28;20028;-14
2022/07/07 05:02:32;;;;;;;5.10;4.60;;;21.10;72.70;;;;;;5073472;28;20383;-14
2022/07/07 05:04:58;;;;;;;5.85;4.05;;;21.00;74.00;;;;;;5073781;28;20107;-14
2022/07/07 05:07:24;;;;;;;4.93;4.43;;;21.00;72.50;;;;;;5055507;28;20037;-15
2022/07/07 05:09:50;;;;;;;5.47;4.10;;;21.00;73.30;;;;;;5073425;28;20423;-14
2022/07/07 05:12:16;;;;;;;5.03;4.10;;;21.00;72.90;;;;;;5073185;28;20028;-15
2022/07/07 05:14:43;;;;;;;5.75;4.28;;;21.10;72.70;;;;;;5073791;28;20032;-14
2022/07/07 05:17:09;;;;;;;5.70;4.20;;;21.10;72.50;;;;;;5073244;28;20037;-14
2022/07/07 05:19:35;;;;;;;6.38;4.10;;;21.10;72.80;;;;;;5073496;28;20031;-14
2022/07/07 05:22:01;;;;;;;5.13;3.88;;;21.10;72.00;;;;;;5073196;28;20020;-14
2022/07/07 05:24:27;;;;;;;6.90;4.45;;;21.10;71.90;;;;;;5073123;28;20020;-16
2022/07/07 05:26:53;;;;;;;6.57;4.55;;;21.20;72.40;;;;;;5073350;28;20039;-15
2022/07/07 05:29:19;;;;;;;7.25;4.30;;;21.20;71.90;;;;;;5073489;28;20380;-15
2022/07/07 05:31:45;;;;;;;5.20;4.35;;;21.30;71.20;;;;;;5073383;28;20025;-14
2022/07/07 05:34:11;;;;;;;4.43;4.00;;;21.40;70.60;;;;;;5073724;28;20058;-13
2022/07/07 05:36:37;;;;;;;6.68;4.13;;;21.40;70.70;;;;;;5072975;28;20427;-16
2022/07/07 05:39:03;;;;;;;5.15;4.03;;;21.40;70.10;;;;;;5055542;28;20024;-14
2022/07/07 05:41:29;;;;;;;6.10;4.22;;;21.40;70.30;;;;;;5055878;28;20086;-14
2022/07/07 05:43:55;;;;;;;4.70;4.20;;;21.40;70.00;;;;;;5073183;28;20028;-13
2022/07/07 05:46:21;;;;;;;5.47;4.35;;;21.40;69.80;;;;;;5072653;28;20033;-14
2022/07/07 05:48:47;;;;;;;9.38;6.85;;;21.40;70.20;;;;;;5072949;28;20032;-16
2022/07/07 05:51:13;;;;;;;5.60;4.80;;;21.40;69.50;;;;;;5072880;28;20032;-13
2022/07/07 05:53:39;;;;;;;5.38;4.53;;;21.30;69.20;;;;;;5072892;28;20032;-14
2022/07/07 05:56:05;;;;;;;6.57;4.65;;;21.30;70.20;;;;;;5153966;22;20048;-17
2022/07/07 05:58:31;;;;;;;6.22;4.93;;;21.30;69.10;;;;;;5092938;28;20028;-17
2022/07/07 06:00:57;;;;;;;6.07;5.00;;;21.30;69.10;;;;;;5093088;28;20020;-16
2022/07/07 06:03:23;;;;;;;6.82;4.32;;;21.30;69.30;;;;;;5093037;28;20443;-17
2022/07/07 06:05:49;;;;;;;6.70;4.82;;;21.30;68.90;;;;;;5093048;28;20119;-18
2022/07/07 06:08:17;;;;;;;6.22;4.95;;;21.30;69.20;;;;;;5092862;28;20101;-18
2022/07/07 06:10:44;;;;;;;6.90;4.93;;;21.30;69.00;;;;;;5092879;28;20028;-16
2022/07/07 06:13:10;;;;;;;6.25;5.25;;;21.30;68.40;;;;;;5093356;28;20024;-18
2022/07/07 06:15:35;;;;;;;7.65;4.78;;;21.40;69.00;;;;;;5092857;28;20391;-18
2022/07/07 06:18:05;;;;;;;8.95;5.45;;;21.40;69.10;;;;;;5093128;28;20060;-16
2022/07/07 06:20:31;;;;;;;9.88;5.18;;;21.50;69.00;;;;;;5092634;28;20024;-15
2022/07/07 06:22:58;;;;;;;6.07;4.43;;;21.70;68.70;;;;;;5092855;28;20028;-16
2022/07/07 06:25:26;;;;;;;4.80;4.07;;;22.00;69.10;;;;;;5092757;28;20028;-17
2022/07/07 06:27:52;;;;;;;5.45;3.95;;;22.40;68.20;;;;;;5092739;28;20572;-16
2022/07/07 06:30:18;;;;;;;6.38;4.10;;;22.50;66.90;;;;;;5092867;28;20028;-16
2022/07/07 06:32:44;;;;;;;5.35;4.25;;;22.80;66.10;;;;;;5092807;28;20031;-14
2022/07/07 06:35:10;;;;;;;4.78;4.10;;;22.90;64.80;;;;;;5095033;28;20031;-14
2022/07/07 06:37:37;;;;;;;5.72;3.85;;;23.10;65.30;;;;;;5096934;28;20025;-16
2022/07/07 06:40:03;;;;;;;6.20;4.32;;;23.40;64.90;;;;;;5096784;28;20542;-15
2022/07/07 06:42:29;;;;;;;4.55;3.92;;;23.60;64.30;;;;;;5096605;28;20032;-16
2022/07/07 06:44:55;;;;;;;5.85;4.00;;;23.90;63.40;;;;;;5097362;28;20459;-17
2022/07/07 06:47:21;;;;;;;5.28;4.00;;;24.00;62.40;;;;;;5097319;28;20038;-15
2022/07/07 06:49:47;;;;;;;5.55;4.07;;;24.00;61.00;;;;;;5096969;28;20020;-17
2022/07/07 06:52:13;;;;;;;14.98;5.68;;;23.90;61.90;;;;;;5096304;28;20101;-16
2022/07/07 06:54:39;;;;;;;5.90;4.18;;;23.90;62.20;;;;;;5077705;28;20071;-16
2022/07/07 06:57:06;;;;;;;5.38;3.88;;;23.80;62.00;;;;;;5096667;28;20083;-14
2022/07/07 06:59:33;;;;;;;4.15;3.72;;;23.80;62.20;;;;;;5096523;28;20032;-16
2022/07/07 07:02:00;;;;;;;5.20;4.10;;;23.90;61.40;;;;;;5096800;28;20088;-16
2022/07/07 07:04:26;;;;;;;5.60;3.90;;;23.90;60.90;;;;;;5077795;28;20020;-16
2022/07/07 07:06:52;;;;;;;5.70;3.92;;;23.80;61.30;;;;;;5077888;28;20032;-17
2022/07/07 07:09:18;;;;;;;7.55;4.30;;;23.90;60.80;;;;;;5077825;28;20074;-18
2022/07/07 07:11:45;;;;;;;5.88;3.70;;;23.90;60.70;;;;;;5096262;28;20032;-16
2022/07/07 07:14:13;;;;;;;4.85;3.95;;;24.20;60.80;;;;;;5095927;28;20506;-17
2022/07/07 07:16:40;;;;;;;7.50;4.50;;;24.30;59.70;;;;;;5096177;28;20062;-17
2022/07/07 07:19:06;;;;;;;5.05;3.78;;;24.50;59.50;;;;;;5096068;28;20025;-16
2022/07/07 07:21:32;;;;;;;4.40;4.00;;;24.80;59.10;;;;;;5096419;28;20028;-18
2022/07/07 07:23:59;;;;;;;5.00;3.70;;;24.90;58.10;;;;;;5077565;28;20024;-16
2022/07/07 07:26:24;;;;;;;4.40;3.88;;;25.20;58.10;;;;;;5077232;28;20540;-16
2022/07/07 07:28:52;;;;;;;5.07;3.58;;;25.50;57.40;;;;;;5077777;28;20020;-17
2022/07/07 07:31:19;;;;;;;4.55;3.60;;;25.80;56.40;;;;;;5095608;28;20071;-16
2022/07/07 07:33:45;;;;;;;5.15;3.58;;;25.90;55.00;;;;;;5095851;28;20038;-16
2022/07/07 07:36:11;;;;;;;5.15;3.65;;;26.00;54.50;;;;;;5095827;28;20475;-17
2022/07/07 07:38:39;;;;;;;4.25;3.72;;;26.20;54.00;;;;;;5095198;28;20027;-16
2022/07/07 07:41:07;;;;;;;4.78;3.50;;;26.40;54.30;;;;;;5095339;28;20024;-17
2022/07/07 07:43:34;;;;;;;4.90;3.70;;;26.50;53.40;;;;;;5095356;28;20024;-17
2022/07/07 07:46:01;;;;;;;3.30;3.10;;;26.70;53.30;;;;;;5095146;28;20028;-16
2022/07/07 07:48:27;;;;;;;7.70;3.70;;;26.80;53.40;;;;;;5095142;28;20028;-17
2022/07/07 07:50:53;;;;;;;4.78;3.67;;;26.90;52.70;;;;;;5095770;28;20036;-17
2022/07/07 07:53:19;;;;;;;3.85;3.53;;;27.00;52.30;;;;;;5095162;28;20043;-16
2022/07/07 07:55:45;;;;;;;3.88;3.25;;;27.20;51.80;;;;;;5095040;28;20527;-16
2022/07/07 07:58:14;;;;;;;4.22;3.50;;;27.40;50.30;;;;;;5095351;28;20383;-15
2022/07/07 08:00:40;;;;;;;3.53;3.20;;;27.50;49.80;;;;;;5095115;28;20020;-16
2022/07/07 08:03:06;;;;;;;4.97;3.33;;;27.40;50.50;;;;;;5095574;28;20020;-15
2022/07/07 08:05:32;;;;;;;4.97;3.25;;;27.50;50.30;;;;;;5095261;28;20020;-16
2022/07/07 08:07:57;;;;;;;4.15;3.20;;;27.60;50.20;;;;;;5094829;28;20363;-16
2022/07/07 08:10:24;;;;;;;3.70;3.40;;;27.70;49.80;;;;;;5094527;28;20027;-15
2022/07/07 08:12:50;;;;;;;5.03;3.17;;;27.90;48.70;;;;;;5094766;28;20030;-15
2022/07/07 08:15:17;;;;;;;4.75;3.30;;;27.90;49.30;;;;;;5094710;28;20127;-16
2022/07/07 08:17:44;;;;;;;3.60;3.17;;;28.20;48.60;;;;;;5095006;28;20020;-16
2022/07/07 08:20:10;;;;;;;8.18;3.58;;;28.40;48.50;;;;;;5094676;28;20055;-15
2022/07/07 08:22:37;;;;;;;4.00;3.40;;;28.50;48.10;;;;;;5094696;28;20095;-16
2022/07/07 08:25:04;;;;;;;4.82;3.40;;;28.60;48.60;;;;;;5094691;28;20077;-16
2022/07/07 08:27:30;;;;;;;4.28;3.30;;;28.80;47.50;;;;;;5094772;28;20036;-15
2022/07/07 08:29:55;;;;;;;3.78;3.33;;;28.90;47.90;;;;;;5094478;28;20042;-15
2022/07/07 08:32:21;;;;;;;3.55;3.25;;;29.10;47.30;;;;;;5094224;28;20107;-15
2022/07/07 08:34:47;;;;;;;3.50;3.17;;;29.40;46.60;;;;;;5094286;28;20025;-17
2022/07/07 08:37:13;;;;;;;6.13;3.53;;;29.50;45.50;;;;;;5076162;28;20024;-15
2022/07/07 08:39:39;;;;;;;3.67;3.13;;;29.60;45.70;;;;;;5094244;28;20067;-15
2022/07/07 08:42:06;;;;;;;3.65;2.92;;;29.80;45.00;;;;;;5094608;28;20024;-15
2022/07/07 08:44:32;;;;;;;3.85;3.10;;;29.90;45.70;;;;;;5094086;28;20553;-15
2022/07/07 08:46:58;;;;;;;3.22;2.92;;;30.00;45.70;;;;;;5094833;28;20543;-15
2022/07/07 08:49:27;;;;;;;4.68;3.30;;;30.30;45.30;;;;;;5094054;28;20157;-17
2022/07/07 08:51:55;;;;;;;4.20;3.15;;;30.40;44.00;;;;;;5094325;28;20024;-16
2022/07/07 08:54:24;;;;;;;4.22;3.00;;;30.60;44.30;;;;;;5093735;28;20509;-16
2022/07/07 08:56:50;;;;;;;4.63;3.20;;;30.80;43.90;;;;;;5093394;28;20364;-16
2022/07/07 08:59:17;;;;;;;3.97;2.97;;;31.00;43.00;;;;;;5094101;28;20028;-15
2022/07/07 09:02:00;;;;;;;2.80;2.60;;;31.20;43.00;;;;;;5093842;28;20486;-15
2022/07/07 09:04:26;;;;;;;;;;;31.30;42.80;;;;;;5094117;28;20096;-15
2022/07/07 09:07:06;;;;;;;6.40;3.10;;;31.30;42.50;;;;;;5094324;28;19959;-15
2022/07/07 09:09:54;;;;;;;5.28;3.20;;;30.90;43.40;;;;;;5094046;28;20024;-15
2022/07/07 09:12:20;;;;;;;4.15;3.03;;;30.70;43.20;;;;;;5075773;28;20035;-17
2022/07/07 09:14:49;;;;;;;3.20;2.92;;;30.60;43.60;;;;;;5093676;28;20028;-16
2022/07/07 09:17:31;;;;;;;3.78;2.90;;;31.00;43.00;;;;;;5093912;28;20099;-16
2022/07/07 09:19:59;;;;;;;3.15;2.88;;;31.40;41.60;;;;;;5093924;28;20032;-16
2022/07/07 09:22:44;;;;;;;3.22;2.92;;;31.70;41.50;;;;;;5093491;28;20020;-17
2022/07/07 09:25:11;;;;;;;4.82;3.20;;;32.00;39.60;;;;;;5093713;28;20024;-16
2022/07/07 09:27:55;;;;;;;4.60;3.33;;;32.10;40.90;;;;;;5093335;28;20042;-15
2022/07/07 09:30:31;;;;;;;4.57;2.83;;;32.10;40.50;;;;;;5093310;28;20522;-15
2022/07/07 09:33:00;;;;;;;4.60;3.20;;;32.10;40.90;;;;;;5093318;28;20437;-16
2022/07/07 09:38:13;;;;;;;3.40;2.88;;;32.50;40.70;;;;;;5093725;28;20088;-15
2022/07/07 09:41:00;;;;;;;3.38;3.08;;;32.60;39.10;;;;;;5093265;28;20028;-16
2022/07/07 09:43:28;;;;;;;3.47;3.17;;;32.70;39.10;;;;;;5093903;28;20425;-16
2022/07/07 09:46:15;;;;;;;6.68;3.03;;;32.80;40.10;;;;;;5093382;28;20021;-16
2022/07/07 09:48:47;;;;;;;3.78;2.90;;;33.00;40.60;;;;;;5093396;28;20070;-16
2022/07/07 09:51:14;;;;;;;4.15;2.92;;;33.20;38.20;;;;;;5093226;28;20024;-16
2022/07/07 09:54:08;;;;;;;3.35;2.65;;;33.50;39.00;;;;;;5093122;28;20062;-16
2022/07/07 09:56:36;;;;;;;2.85;2.63;;;33.90;38.50;;;;;;5092825;28;20048;-16
2022/07/07 09:59:06;;;;;;;2.97;2.67;;;34.10;38.10;;;;;;5093793;28;20043;-16
2022/07/07 10:01:36;;;;;;;5.00;2.90;;;34.50;37.00;;;;;;5093160;28;20032;-15
2022/07/07 10:04:05;;;;;;;3.13;2.90;;;34.80;36.60;;;;;;5093129;28;20024;-16
2022/07/07 10:06:33;;;;;;;3.30;2.63;;;34.60;36.60;;;;;;5092888;28;20054;-15
2022/07/07 10:09:18;;;;;;;3.42;2.53;;;34.30;37.10;;;;;;5094673;28;20031;-15
2022/07/07 10:11:46;;;;;;;4.95;2.90;;;34.30;37.30;;;;;;5097142;28;20028;-15
2022/07/07 10:14:24;;;;;;;4.03;2.90;;;34.60;36.60;;;;;;5097214;28;20023;-16
2022/07/07 10:16:53;;;;;;;3.10;2.80;;;34.60;35.80;;;;;;5097056;28;20040;-15
2022/07/07 10:19:22;;;;;;;3.08;2.85;;;34.80;36.80;;;;;;5097004;28;20055;-16
2022/07/07 10:21:52;;;;;;;3.15;2.40;;;34.90;36.60;;;;;;5097569;28;20375;-15
2022/07/07 10:24:21;;;;;;;4.03;2.80;;;35.30;36.10;;;;;;5096675;28;20055;-15
2022/07/07 10:26:53;;;;;;;3.00;2.38;;;35.40;35.40;;;;;;5096642;28;20032;-16
2022/07/07 10:29:46;;;;;;;2.60;2.50;;;35.60;34.70;;;;;;5097326;28;20024;-16
2022/07/07 10:32:30;;;;;;;3.30;2.55;;;35.60;33.60;;;;;;5097116;28;20020;-15
2022/07/07 10:34:58;;;;;;;4.15;2.40;;;35.70;34.20;;;;;;5097379;28;20413;-16
2022/07/07 10:37:26;;;;;;;2.45;2.17;;;35.60;34.30;;;;;;5096682;28;20031;-16
2022/07/07 10:39:57;;;;;;;2.63;2.38;;;35.80;34.40;;;;;;5096840;28;20024;-15
2022/07/07 10:42:23;;;;;;;2.65;2.30;;;35.90;33.50;;;;;;5096416;28;20035;-15
2022/07/07 10:44:51;;;;;;;4.78;2.35;;;36.00;33.60;;;;;;5096527;28;20028;-16
2022/07/07 10:47:17;;;;;;;2.20;2.10;;;36.40;33.40;;;;;;5096640;28;20124;-16
2022/07/07 10:49:55;;;;;;;2.72;2.45;;;36.70;33.00;;;;;;5096424;28;20115;-16
2022/07/07 10:52:42;;;;;;;3.88;2.47;;;37.20;32.50;;;;;;5096187;28;20035;-16
2022/07/07 10:55:09;;;;;;;4.75;2.60;;;37.20;32.50;;;;;;5096046;28;20044;-16
2022/07/07 10:57:46;;;;;;;3.10;2.40;;;37.40;31.80;;;;;;5096265;28;20024;-16
2022/07/07 11:00:21;;;;;;;2.50;2.30;;;37.50;32.30;;;;;;5078196;28;20031;-17
2022/07/07 11:02:53;;;;;;;2.47;2.00;;;37.90;31.30;;;;;;5096528;28;20055;-16
2022/07/07 11:05:19;;;;;;;2.25;2.05;;;38.00;30.30;;;;;;5096125;28;20031;-15
2022/07/07 11:07:57;;;;;;;2.75;2.30;;;38.40;30.10;;;;;;5096010;28;20122;-16
2022/07/07 11:10:47;;;;;;;2.50;2.30;;;38.60;29.10;;;;;;5096242;28;20055;-15
2022/07/07 11:13:29;;;;;;;2.63;2.42;;;38.70;29.00;;;;;;5096687;28;20020;-15
2022/07/07 11:16:10;;;;;;;3.40;3.10;;;38.90;29.00;;;;;;5095959;28;20392;-16
2022/07/07 11:18:37;;;;;;;3.30;2.60;;;38.50;30.20;;;;;;5095636;28;20028;-15
2022/07/07 11:21:05;;;;;;;2.58;2.38;;;38.50;30.80;;;;;;5095146;28;20035;-16
2022/07/07 11:23:56;;;;;;;2.70;2.50;;;38.80;30.00;;;;;;5096345;28;20498;-16
2022/07/07 11:26:26;;;;;;;2.75;2.50;;;39.20;28.50;;;;;;5095434;28;20016;-16
2022/07/07 11:28:57;;;;;;;2.70;2.50;;;39.50;29.00;;;;;;5095566;28;20543;-16
2022/07/07 11:31:27;;;;;;;2.70;2.50;;;39.60;28.60;;;;;;5096306;28;20387;-15
2022/07/07 11:33:55;;;;;;;3.45;2.58;;;39.50;29.30;;;;;;5095897;28;20036;-16
2022/07/07 11:36:25;;;;;;;2.13;2.03;;;39.80;29.00;;;;;;5095359;28;20110;-15
2022/07/07 11:38:55;;;;;;;3.60;2.58;;;39.80;29.00;;;;;;5095446;28;20028;-15
2022/07/07 11:41:21;;;;;;;5.32;2.80;;;39.80;29.30;;;;;;5095611;28;20048;-15
2022/07/07 11:43:57;;;;;;;6.18;2.85;;;39.30;29.50;;;;;;5095767;28;20161;-15
2022/07/07 11:46:25;;;;;;;4.32;2.47;;;39.20;29.10;;;;;;5095478;28;20028;-14
2022/07/07 11:48:52;;;;;;;2.90;2.70;;;39.10;30.20;;;;;;5077161;28;20058;-16
2022/07/07 11:51:28;;;;;;;2.88;2.35;;;39.20;30.00;;;;;;5095291;28;20108;-15
2022/07/07 11:54:00;;;;;;;2.60;2.40;;;39.20;29.70;;;;;;5095288;28;20027;-16
2022/07/07 11:56:33;;;;;;;3.20;2.40;;;39.60;29.40;;;;;;5094761;28;20507;-16
2022/07/07 11:59:03;;;;;;;4.65;2.58;;;40.00;28.70;;;;;;5095163;28;20020;-16
2022/07/07 12:01:34;;;;;;;3.22;2.35;;;40.30;28.20;;;;;;5095018;28;20107;-16
2022/07/07 12:04:23;;;;;;;2.92;2.72;;;40.40;28.30;;;;;;5076952;28;20055;-16
2022/07/07 12:06:51;;;;;;;2.90;2.33;;;40.70;27.90;;;;;;5095254;28;20027;-16
2022/07/07 12:09:17;;;;;;;3.28;2.60;;;40.40;28.70;;;;;;5095226;28;20028;-16
2022/07/07 12:11:44;;;;;;;3.90;2.83;;;40.20;28.60;;;;;;5094811;28;20028;-16
2022/07/07 12:14:12;;;;;;;3.25;2.90;;;40.40;28.90;;;;;;5095117;28;20032;-16
2022/07/07 12:16:42;;;;;;;2.92;2.50;;;40.30;28.50;;;;;;5094845;28;20113;-15
2022/07/07 12:19:09;;;;;;;4.18;2.50;;;40.20;28.90;;;;;;5094674;28;20540;-15
2022/07/07 12:21:46;;;;;;;3.47;2.80;;;40.00;29.30;;;;;;5094651;28;20040;-14
2022/07/07 12:24:22;;;;;;;3.38;2.60;;;39.70;28.80;;;;;;5095026;28;20020;-16
2022/07/07 12:26:51;;;;;;;3.47;2.50;;;39.20;29.50;;;;;;5094963;28;20036;-17
2022/07/07 12:29:22;;;;;;;3.45;2.60;;;38.90;29.40;;;;;;5094532;28;20569;-15
2022/07/07 12:31:50;;;;;;;3.60;2.60;;;38.50;30.10;;;;;;5093675;28;20429;-15
2022/07/07 12:34:19;;;;;;;2.60;2.40;;;38.80;30.30;;;;;;5094019;28;20502;-15
2022/07/07 12:36:47;;;;;;;2.85;2.58;;;39.10;30.10;;;;;;5094743;28;20059;-15
2022/07/07 12:39:14;;;;;;;3.20;2.90;;;39.20;29.90;;;;;;5094837;28;20028;-15
2022/07/07 12:41:41;;;;;;;4.53;2.88;;;39.20;30.00;;;;;;5094419;28;20513;-16
2022/07/07 12:44:37;;;;;;;4.22;2.72;;;39.40;29.80;;;;;;5076173;28;20023;-15
2022/07/07 12:47:03;;;;;;;3.58;3.10;;;39.90;29.10;;;;;;5066567;28;20029;-15
2022/07/07 12:49:29;;;;;;;4.40;3.03;;;40.20;28.60;;;;;;5094533;28;20028;-16
2022/07/07 12:51:56;;;;;;;4.55;2.80;;;40.00;28.50;;;;;;5104689;28;20089;-15
2022/07/07 12:54:31;;;;;;;4.45;2.75;;;39.80;29.00;;;;;;5110204;27;20392;-14
2022/07/07 12:57:04;;;;;;;3.17;2.80;;;39.00;29.40;;;;;;5110997;28;20398;-14